Time;durP1;ratioP1;P1;durP2;ratioP2;P2;SDS_P1;SDS_P2;PMS_P1;PMS_P2;Temp;Humidity;BMP_temperature;BMP_pressure;BME280_temperature;BME280_humidity;BME280_pressure;Samples;Min_cycle;Max_cycle;Signal;HPM_P1;HPM_P2
2023/12/20 08:38:20;;;;;;;6.85;1.42;;;;;;;7.64;90.89;94093.66;5198233;27;20386;-86
2023/12/20 08:43:50;;;;;;;3.15;1.63;;;;;;;7.92;71.35;94096.88;5161473;27;20038;-87
2023/12/20 08:46:18;;;;;;;4.55;1.85;;;;;;;7.99;73.91;94100.00;5141939;27;20031;-85
2023/12/20 08:48:56;;;;;;;1.88;1.20;;;;;;;8.16;74.01;94099.00;5158873;27;20054;-85
2023/12/20 08:51:49;;;;;;;4.45;1.35;;;;;;;8.18;74.96;94102.16;5176662;27;20026;-88
2023/12/20 08:54:17;;;;;;;2.57;1.53;;;;;;;8.28;87.40;94096.19;5176311;27;20024;-90
2023/12/20 08:57:10;;;;;;;2.72;1.42;;;;;;;8.35;83.41;94096.69;5158243;27;20105;-89
2023/12/20 08:59:46;;;;;;;;;;;;;;;;;;;;;
2023/12/20 09:02:16;;;;;;;7.88;3.28;;;;;;;8.39;78.21;94113.41;5176594;27;20029;-86
2023/12/20 09:05:03;;;;;;;5.65;3.10;;;;;;;8.34;83.12;94106.38;5158463;27;20026;-87
2023/12/20 09:07:31;;;;;;;7.68;2.13;;;;;;;8.54;83.75;94117.13;5176278;27;20320;-86
2023/12/20 09:09:57;;;;;;;2.83;1.60;;;;;;;8.56;85.16;94115.03;5158602;27;20030;-85
2023/12/20 09:15:26;;;;;;;2.97;1.67;;;;;;;8.32;80.58;94131.16;5160635;27;20029;-87
2023/12/20 09:20:35;;;;;;;4.32;1.90;;;;;;;8.54;85.89;94138.78;5176301;27;20026;-87
2023/12/20 09:23:01;;;;;;;3.90;2.15;;;;;;;8.54;86.01;94136.16;5157686;27;20343;-85
2023/12/20 09:25:45;;;;;;;4.85;1.67;;;;;;;8.53;83.48;94137.22;5140406;27;20019;-85
2023/12/20 09:28:10;;;;;;;2.90;1.70;;;;;;;8.58;83.07;94141.66;5162485;27;20125;-86
2023/12/20 09:30:39;;;;;;;4.13;1.83;;;;;;;8.58;83.98;94139.06;5136838;27;20192;-87
2023/12/20 09:33:06;;;;;;;4.80;1.60;;;;;;;8.65;91.32;94144.03;5155422;27;20039;-85
2023/12/20 09:35:32;;;;;;;4.32;1.80;;;;;;;8.75;88.16;94138.78;5119559;27;20031;-87
2023/12/20 09:38:17;;;;;;;3.28;1.88;;;;;;;8.84;89.48;94144.31;5136918;27;20049;-87
2023/12/20 09:40:42;;;;;;;3.38;1.58;;;;;;;8.86;86.40;94140.38;5136645;27;20027;-86
2023/12/20 09:43:32;;;;;;;3.00;1.60;;;;;;;8.72;95.21;94123.63;5136408;27;20363;-87
2023/12/20 09:46:02;;;;;;;6.47;3.17;;;;;;;8.84;96.50;94129.41;5154521;27;20109;-85
2023/12/20 09:48:30;;;;;;;7.07;2.78;;;;;;;8.85;84.47;94143.25;5111089;27;20031;-88
2023/12/20 09:50:56;;;;;;;4.35;2.00;;;;;;;8.58;82.03;94134.59;5123317;27;20109;-87
2023/12/20 09:53:29;;;;;;;3.55;1.60;;;;;;;8.81;83.59;94127.31;5106108;27;20027;-85
2023/12/20 09:56:01;;;;;;;;;;;;;;;8.88;84.79;94132.28;5123236;27;20031;-86
2023/12/20 09:58:26;;;;;;;3.00;1.65;;;;;;;8.90;85.16;94127.56;5105774;27;19934;-86
2023/12/20 10:00:53;;;;;;;3.38;1.95;;;;;;;8.87;82.06;94128.09;5105541;27;20063;-86
2023/12/20 10:06:18;;;;;;;3.90;1.95;;;;;;;8.86;79.18;94123.91;5197710;27;20390;-85
2023/12/20 10:09:09;;;;;;;3.20;2.20;;;;;;;8.74;74.69;94117.13;5158229;27;20125;-86
2023/12/20 10:11:37;;;;;;;3.63;2.05;;;;;;;8.71;74.26;94104.59;5177055;27;20035;-87
2023/12/20 10:16:47;;;;;;;4.55;2.20;;;;;;;8.85;73.09;94091.00;5161488;27;20025;-87
2023/12/20 10:19:19;;;;;;;2.35;1.38;;;;;;;8.95;76.66;94092.81;5141469;27;20018;-87
2023/12/20 10:21:44;;;;;;;3.47;1.50;;;;;;;8.93;83.86;94087.06;5158457;27;20074;-86
2023/12/20 10:24:17;;;;;;;4.70;1.50;;;;;;;8.98;87.12;94089.66;5176618;27;20054;-86
2023/12/20 10:26:42;;;;;;;3.53;1.60;;;;;;;8.97;88.24;94091.53;5154265;27;20121;-85
2023/12/20 10:29:08;;;;;;;3.80;1.77;;;;;;;9.04;94.64;94094.63;5137345;27;20454;-86
2023/12/20 10:31:34;;;;;;;2.53;1.30;;;;;;;8.97;83.85;94083.69;5120107;27;20019;-86
2023/12/20 10:48:41;;;;;;;3.92;2.03;;;;;;;9.11;81.46;94055.16;5114805;27;20379;-84
2023/12/20 10:51:06;;;;;;;4.40;2.00;;;;;;;9.23;78.29;94056.69;5113194;28;20066;-84
2023/12/20 10:53:33;;;;;;;5.78;1.90;;;;;;;9.22;80.35;94055.13;5096384;28;20056;-85
2023/12/20 10:56:00;;;;;;;3.95;1.63;;;;;;;9.31;85.67;94046.47;5113103;28;20031;-86
2023/12/20 10:58:26;;;;;;;3.45;1.65;;;;;;;9.36;87.37;94044.88;5096184;28;20038;-84
2023/12/20 11:01:00;;;;;;;4.18;1.63;;;;;;;9.37;89.16;94034.19;5113101;28;20458;-85
2023/12/20 11:03:26;;;;;;;3.08;1.70;;;;;;;9.35;84.46;94033.66;5113242;28;20020;-84
2023/12/20 11:05:59;;;;;;;4.63;2.10;;;;;;;9.41;82.34;94022.13;5112891;28;20373;-84
2023/12/20 11:08:43;;;;;;;6.25;1.98;;;;;;;9.44;84.32;94013.72;5113852;28;20015;-85
2023/12/20 11:11:15;;;;;;;2.95;1.95;;;;;;;9.47;81.80;94013.22;5113957;28;20016;-84
2023/12/20 11:14:02;;;;;;;3.90;1.38;;;;;;;9.56;84.53;94015.25;5112878;28;20027;-84
2023/12/20 11:16:27;;;;;;;5.28;2.38;;;;;;;9.62;80.31;94009.72;5109768;28;20452;-84
2023/12/20 11:18:53;;;;;;;19.98;2.55;;;;;;;9.71;80.47;94007.34;5091927;28;20028;-84
2023/12/20 11:21:19;;;;;;;4.97;1.90;;;;;;;9.78;78.20;94004.41;5092384;28;20087;-83
2023/12/20 11:23:45;;;;;;;2.72;1.73;;;;;;;9.84;81.56;94005.19;5092460;28;20020;-83
2023/12/20 11:26:10;;;;;;;4.53;1.90;;;;;;;9.76;77.97;93996.84;5112535;28;20019;-83
2023/12/20 11:28:36;;;;;;;5.75;1.92;;;;;;;9.83;73.49;93999.19;5112051;28;20023;-83
2023/12/20 11:31:02;;;;;;;4.45;1.88;;;;;;;9.89;71.60;93999.91;5113571;28;20024;-83
2023/12/20 11:33:32;;;;;;;7.43;2.33;;;;;;;9.89;71.46;94000.69;5112491;28;20076;-83
2023/12/20 11:35:59;;;;;;;3.50;1.83;;;;;;;9.92;74.16;93994.16;5093252;28;20081;-83
2023/12/20 11:38:25;;;;;;;4.55;1.83;;;;;;;10.01;73.66;93991.72;5104632;28;20038;-83
2023/12/20 11:40:53;;;;;;;3.22;1.88;;;;;;;10.04;74.56;93993.78;5095384;28;20024;-86
2023/12/20 11:43:39;;;;;;;4.70;2.35;;;;;;;10.15;74.24;93986.66;5112253;28;20119;-86
2023/12/20 11:46:05;;;;;;;3.45;1.70;;;;;;;10.39;72.68;93983.31;5112221;28;20349;-86
2023/12/20 11:48:32;;;;;;;4.30;1.85;;;;;;;10.49;71.45;93987.72;5104540;28;20085;-86
2023/12/20 11:50:58;;;;;;;5.00;2.33;;;;;;;10.74;69.17;93987.50;5098094;28;20024;-86
2023/12/20 11:53:23;;;;;;;4.80;1.90;;;;;;;10.97;68.54;93989.63;5085031;28;20059;-83
2023/12/20 11:55:49;;;;;;;3.17;1.73;;;;;;;10.99;70.19;93988.31;5096084;28;20027;-84
2023/12/20 11:58:16;;;;;;;4.95;1.67;;;;;;;10.60;74.95;93986.59;5097895;28;20085;-84
2023/12/20 12:00:43;;;;;;;5.45;1.70;;;;;;;10.95;74.49;93981.25;5098253;28;20032;-83
2023/12/20 12:03:09;;;;;;;4.63;2.10;;;;;;;10.94;73.82;93983.09;5098007;28;20028;-84
2023/12/20 12:05:36;;;;;;;3.90;2.00;;;;;;;10.88;73.94;93982.38;5098174;28;20028;-84
2023/12/20 12:08:02;;;;;;;4.30;1.98;;;;;;;10.74;75.19;93976.22;5097617;28;20031;-84
2023/12/20 12:10:29;;;;;;;5.63;2.00;;;;;;;10.20;78.03;93976.16;5097992;28;20101;-84
2023/12/20 12:12:54;;;;;;;4.07;2.13;;;;;;;10.53;76.45;93970.38;5098094;28;20028;-84
2023/12/20 12:15:21;;;;;;;5.32;2.13;;;;;;;10.51;74.22;93970.69;5081089;28;20038;-84
2023/12/20 12:17:56;;;;;;;4.07;2.22;;;;;;;10.29;75.61;93965.88;5095555;28;20024;-84
2023/12/20 12:20:22;;;;;;;4.28;1.95;;;;;;;10.40;75.46;93972.59;5097702;28;20067;-84
2023/12/20 12:22:59;;;;;;;4.00;2.20;;;;;;;10.43;74.13;93968.66;5097747;28;20032;-84
2023/12/20 12:25:24;;;;;;;4.18;2.08;;;;;;;10.40;75.78;93971.78;5081166;28;20070;-84
2023/12/20 12:27:51;;;;;;;4.45;1.70;;;;;;;10.46;75.60;93978.56;5090718;28;20437;-84
2023/12/20 12:30:18;;;;;;;4.05;2.10;;;;;;;10.48;75.09;93971.25;5096073;28;20328;-84
2023/12/20 12:32:44;;;;;;;6.18;2.15;;;;;;;10.44;76.03;93973.63;5091281;28;20084;-84
2023/12/20 12:35:10;;;;;;;4.60;2.00;;;;;;;10.43;78.14;93976.50;5080678;28;20038;-84
2023/12/20 12:37:38;;;;;;;4.72;2.45;;;;;;;10.31;75.28;93979.47;5091725;28;20032;-84
2023/12/20 12:40:13;;;;;;;4.32;2.03;;;;;;;10.16;74.88;93981.16;5089740;28;20437;-84
2023/12/20 12:42:39;;;;;;;10.95;2.38;;;;;;;10.01;76.67;93971.56;5077171;28;20395;-84
2023/12/20 12:45:05;;;;;;;5.68;3.05;;;;;;;9.99;76.59;93971.06;5077235;28;20028;-84
2023/12/20 12:47:31;;;;;;;56.63;22.27;;;;;;;9.97;82.74;93964.53;5075939;28;20425;-84
2023/12/20 12:49:56;;;;;;;20.90;8.65;;;;;;;9.86;76.90;93961.19;5080107;28;20093;-84
2023/12/20 12:52:22;;;;;;;9.05;4.13;;;;;;;9.76;74.12;93965.47;5076921;28;20162;-84
2023/12/20 12:54:48;;;;;;;8.65;4.00;;;;;;;9.33;81.29;93954.72;5087345;28;20051;-84
2023/12/20 12:57:15;;;;;;;7.15;3.83;;;;;;;8.88;93.46;93957.22;5087339;28;20024;-84
2023/12/20 12:59:41;;;;;;;6.07;3.30;;;;;;;8.78;97.68;93952.81;5076028;28;20114;-84
2023/12/20 13:02:06;;;;;;;7.40;3.45;;;;;;;8.75;100.00;93950.72;5067675;28;20477;-84
2023/12/20 13:04:32;;;;;;;7.63;4.22;;;;;;;8.59;100.00;93952.59;5098015;28;20035;-83
2023/12/20 13:06:57;;;;;;;6.85;4.40;;;;;;;8.37;100.00;93958.09;5089937;28;20024;-84
2023/12/20 13:09:23;;;;;;;10.23;4.47;;;;;;;8.29;100.00;93954.19;5060210;28;20303;-84
2023/12/20 13:11:48;;;;;;;11.00;5.32;;;;;;;8.16;100.00;93952.88;5065011;28;20142;-84
2023/12/20 13:14:15;;;;;;;10.90;5.45;;;;;;;8.12;100.00;93941.41;5096711;28;20120;-84
2023/12/20 13:16:41;;;;;;;12.77;5.82;;;;;;;8.44;100.00;93941.09;5084385;28;20333;-84
2023/12/20 13:19:07;;;;;;;10.13;5.18;;;;;;;8.56;100.00;93942.69;5085577;28;20033;-84
2023/12/20 13:21:32;;;;;;;10.57;4.07;;;;;;;8.65;100.00;93942.94;5094305;28;20031;-83
2023/12/20 13:23:58;;;;;;;7.82;4.10;;;;;;;8.67;100.00;93943.44;5081630;28;20030;-83
2023/12/20 13:26:23;;;;;;;12.38;5.88;;;;;;;8.43;100.00;93943.97;5079651;28;20027;-83
2023/12/20 13:28:49;;;;;;;14.82;5.60;;;;;;;8.24;100.00;93928.06;5096191;28;20047;-83
2023/12/20 13:31:14;;;;;;;12.23;6.60;;;;;;;8.33;100.00;93923.91;5096418;28;20024;-83
2023/12/20 13:33:40;;;;;;;12.00;5.28;;;;;;;8.31;100.00;93921.53;5079245;28;20039;-83
2023/12/20 13:36:06;;;;;;;10.40;5.68;;;;;;;8.00;100.00;93932.00;5077877;28;20032;-83
2023/12/20 13:38:31;;;;;;;9.75;4.82;;;;;;;8.24;100.00;93941.13;5086739;28;20032;-83
2023/12/20 13:40:58;;;;;;;9.80;4.40;;;;;;;8.11;100.00;93938.03;5096270;28;20027;-83
2023/12/20 13:43:24;;;;;;;7.28;4.00;;;;;;;8.42;100.00;93939.81;5079723;28;20028;-83
2023/12/20 13:45:50;;;;;;;8.60;4.88;;;;;;;8.38;100.00;93931.72;5063943;28;20047;-85
2023/12/20 13:48:16;;;;;;;11.15;4.95;;;;;;;8.55;100.00;93931.47;5087592;28;20039;-83
2023/12/20 13:50:41;;;;;;;9.45;5.00;;;;;;;8.56;100.00;93930.41;5082637;28;20441;-84
2023/12/20 13:53:06;;;;;;;11.48;5.47;;;;;;;8.58;100.00;93925.69;5090269;28;20118;-84
2023/12/20 13:55:32;;;;;;;11.15;5.75;;;;;;;8.75;100.00;93922.78;5079110;28;20123;-84
2023/12/20 13:57:57;;;;;;;12.27;5.22;;;;;;;8.80;100.00;93916.75;5076427;28;20043;-83
2023/12/20 14:00:23;;;;;;;8.68;4.38;;;;;;;8.86;100.00;93917.53;5082648;28;20064;-84
2023/12/20 14:02:49;;;;;;;10.30;4.00;;;;;;;8.81;100.00;93920.16;5075698;28;20032;-84
2023/12/20 14:05:17;;;;;;;11.57;5.20;;;;;;;8.47;100.00;93922.31;5083722;28;20028;-85
2023/12/20 14:07:46;;;;;;;13.30;4.85;;;;;;;8.60;100.00;93925.44;5095416;28;20353;-84
2023/12/20 14:10:15;;;;;;;9.52;4.88;;;;;;;8.63;100.00;93935.34;5095909;28;20058;-84
2023/12/20 14:12:41;;;;;;;8.32;3.83;;;;;;;8.53;100.00;93933.56;5095703;28;20039;-84
2023/12/20 14:15:10;;;;;;;12.43;6.00;;;;;;;8.53;100.00;93930.94;5079282;28;20040;-85
2023/12/20 14:17:37;;;;;;;10.32;5.05;;;;;;;8.53;100.00;93935.38;5095300;28;20028;-85
2023/12/20 14:20:04;;;;;;;13.82;5.70;;;;;;;8.33;100.00;93937.75;5096897;28;20032;-85
2023/12/20 14:22:30;;;;;;;8.50;4.88;;;;;;;8.27;100.00;93933.56;5095818;28;20412;-85
2023/12/20 14:24:57;;;;;;;11.35;4.95;;;;;;;8.52;100.00;93931.19;5096937;28;20032;-84
2023/12/20 14:27:24;;;;;;;14.35;6.50;;;;;;;8.68;100.00;93931.94;5095165;28;20031;-84
2023/12/20 14:29:50;;;;;;;14.68;6.50;;;;;;;8.68;100.00;93935.34;5078951;28;20124;-84
2023/12/20 14:32:15;;;;;;;15.77;7.15;;;;;;;8.72;100.00;93933.78;5092719;28;20072;-87
2023/12/20 14:34:41;;;;;;;14.32;6.55;;;;;;;8.70;100.00;93924.63;5075645;28;20032;-85
2023/12/20 14:37:07;;;;;;;17.52;7.20;;;;;;;8.68;100.00;93930.13;5077040;28;20055;-85
2023/12/20 14:39:33;;;;;;;16.45;7.75;;;;;;;8.60;100.00;93931.44;5095473;28;20039;-85
2023/12/20 14:41:58;;;;;;;19.35;7.35;;;;;;;8.56;100.00;93940.09;5078088;28;20321;-85
2023/12/20 14:44:24;;;;;;;16.13;7.38;;;;;;;8.52;100.00;93945.03;5095271;28;20096;-85
2023/12/20 14:46:50;;;;;;;15.20;7.75;;;;;;;8.14;100.00;93944.53;5094768;28;20036;-85
2023/12/20 14:49:16;;;;;;;11.18;6.60;;;;;;;8.16;100.00;93955.47;5095396;28;20456;-85
2023/12/20 14:51:44;;;;;;;13.63;7.53;;;;;;;8.09;100.00;93952.38;5094915;28;20036;-85
2023/12/20 14:54:10;;;;;;;19.55;7.95;;;;;;;8.02;100.00;93956.00;5095155;28;20413;-85
2023/12/20 14:56:35;;;;;;;14.23;7.90;;;;;;;7.88;100.00;93947.13;5083334;28;20032;-85
2023/12/20 14:59:01;;;;;;;30.58;8.30;;;;;;;8.00;100.00;93952.88;5075773;28;20467;-85
2023/12/20 15:01:26;;;;;;;15.15;8.02;;;;;;;7.90;100.00;93953.66;5068493;28;20036;-85
2023/12/20 15:03:52;;;;;;;15.38;8.02;;;;;;;7.98;100.00;93951.59;5078615;28;20039;-84
2023/12/20 15:06:20;;;;;;;13.70;7.22;;;;;;;7.87;100.00;93958.59;5096394;28;20020;-87
2023/12/20 15:08:45;;;;;;;27.08;11.23;;;;;;;7.86;100.00;93955.22;5095115;28;20457;-87
2023/12/20 15:11:11;;;;;;;16.55;8.63;;;;;;;7.77;100.00;93962.78;5096505;28;20115;-87
2023/12/20 15:13:37;;;;;;;17.95;8.82;;;;;;;7.81;100.00;93951.81;5095373;28;20158;-87
2023/12/20 15:16:04;;;;;;;13.90;8.43;;;;;;;7.75;100.00;93959.66;5095187;28;20035;-84
2023/12/20 15:18:31;;;;;;;18.17;8.40;;;;;;;7.65;100.00;93967.44;5094946;28;20036;-84
2023/12/20 15:20:57;;;;;;;18.00;8.45;;;;;;;7.59;100.00;93958.03;5094974;28;20158;-87
2023/12/20 15:23:26;;;;;;;19.33;8.50;;;;;;;7.50;100.00;93961.16;5096258;28;20051;-87
2023/12/20 15:25:51;;;;;;;16.55;8.63;;;;;;;7.43;100.00;93967.66;5099223;28;20050;-87
2023/12/20 15:28:17;;;;;;;15.27;7.80;;;;;;;7.28;100.00;93960.56;5098613;28;20028;-87
2023/12/20 15:30:43;;;;;;;13.60;7.85;;;;;;;7.26;100.00;93954.84;5082070;28;20032;-87
2023/12/20 15:33:08;;;;;;;15.25;7.25;;;;;;;7.17;100.00;93963.16;5088265;28;20077;-87
2023/12/20 15:35:34;;;;;;;17.33;7.90;;;;;;;7.20;100.00;93964.47;5080407;28;20036;-85
2023/12/20 15:37:59;;;;;;;15.95;8.05;;;;;;;7.14;100.00;93955.84;5090507;28;20034;-85
2023/12/20 15:40:25;;;;;;;20.33;10.23;;;;;;;6.97;100.00;93953.44;5098594;28;20349;-85
2023/12/20 15:42:50;;;;;;;20.63;9.48;;;;;;;6.79;100.00;93949.44;5098582;28;20421;-87
2023/12/20 15:45:15;;;;;;;17.95;8.85;;;;;;;6.32;100.00;93946.59;5099960;28;20028;-87
2023/12/20 15:47:41;;;;;;;21.25;9.60;;;;;;;6.25;100.00;93955.66;5098129;28;20036;-87
2023/12/20 15:50:07;;;;;;;18.08;8.88;;;;;;;6.11;100.00;93957.88;5098981;28;20032;-87
2023/12/20 15:52:33;;;;;;;17.88;9.57;;;;;;;6.14;100.00;93954.75;5081991;28;20032;-87
2023/12/20 15:54:58;;;;;;;18.42;9.90;;;;;;;6.02;100.00;93958.31;5081701;28;20070;-88
2023/12/20 15:57:24;;;;;;;18.30;9.82;;;;;;;5.95;100.00;93957.72;5098919;28;20036;-88
2023/12/20 15:59:52;;;;;;;16.52;9.13;;;;;;;5.94;100.00;93961.34;5098462;28;20043;-88
2023/12/20 16:02:17;;;;;;;18.15;10.05;;;;;;;5.64;100.00;93967.84;5084351;28;20086;-85
2023/12/20 16:04:43;;;;;;;25.63;12.18;;;;;;;5.11;100.00;93960.53;5077812;28;20032;-85
2023/12/20 16:07:08;;;;;;;29.63;11.43;;;;;;;5.02;100.00;93967.97;5077494;28;20330;-86
2023/12/20 16:09:34;;;;;;;24.80;12.38;;;;;;;5.19;100.00;93973.13;5081671;28;20032;-85
2023/12/20 16:11:59;;;;;;;22.80;11.15;;;;;;;5.46;100.00;93977.56;5099502;28;20078;-85
2023/12/20 16:14:28;;;;;;;19.38;10.18;;;;;;;5.45;100.00;93980.41;5080933;28;20042;-87
2023/12/20 16:16:54;;;;;;;21.65;11.05;;;;;;;5.36;100.00;93983.41;5097812;28;20158;-88
2023/12/20 16:19:19;;;;;;;18.13;9.27;;;;;;;5.32;100.00;93974.53;5097337;28;20065;-87
2023/12/20 16:21:45;;;;;;;20.40;9.10;;;;;;;5.35;100.00;93988.88;5079040;28;20345;-88
2023/12/20 16:24:10;;;;;;;16.10;8.05;;;;;;;5.40;100.00;93991.50;5079401;28;20388;-88
2023/12/20 16:26:36;;;;;;;15.95;8.43;;;;;;;5.48;100.00;93985.91;5077645;28;20035;-87
2023/12/20 16:29:01;;;;;;;17.80;9.38;;;;;;;5.34;100.00;93985.47;5077584;28;20040;-88
2023/12/20 16:31:27;;;;;;;18.98;9.65;;;;;;;5.16;100.00;93994.34;5077624;28;20071;-88
2023/12/20 16:33:52;;;;;;;21.15;9.38;;;;;;;4.88;100.00;93988.34;5077611;28;20093;-85
2023/12/20 16:36:18;;;;;;;24.27;12.38;;;;;;;4.78;100.00;93988.97;5077323;28;20032;-85
2023/12/20 16:38:43;;;;;;;21.67;11.82;;;;;;;4.81;100.00;93985.91;5076796;28;20055;-87
2023/12/20 16:41:09;;;;;;;22.75;11.38;;;;;;;4.93;100.00;93992.78;5072614;28;20028;-85
2023/12/20 16:43:34;;;;;;;26.73;11.88;;;;;;;4.83;100.00;93998.63;5077067;28;20032;-88
2023/12/20 16:46:00;;;;;;;22.38;11.55;;;;;;;4.67;100.00;93995.06;5088751;28;20100;-88
2023/12/20 16:48:26;;;;;;;25.42;12.93;;;;;;;4.77;100.00;94000.38;5085459;28;20081;-85
2023/12/20 16:50:52;;;;;;;28.15;15.45;;;;;;;5.03;100.00;94015.50;5097210;28;20035;-87
2023/12/20 16:53:17;;;;;;;31.17;14.32;;;;;;;5.11;100.00;94016.91;5082075;28;20105;-85
2023/12/20 16:55:44;;;;;;;22.92;12.85;;;;;;;5.27;100.00;94025.66;5082645;28;20032;-84
2023/12/20 16:58:12;;;;;;;35.45;17.80;;;;;;;5.31;100.00;94018.97;5096791;28;20032;-87
2023/12/20 17:00:40;;;;;;;38.53;18.83;;;;;;;5.27;100.00;94025.66;5097800;28;20085;-84
2023/12/20 17:03:05;;;;;;;37.10;18.30;;;;;;;5.18;100.00;94017.50;5085507;28;20052;-87
2023/12/20 17:05:31;;;;;;;32.03;16.73;;;;;;;5.19;100.00;94017.28;5060576;28;20028;-87
2023/12/20 17:07:56;;;;;;;46.00;18.55;;;;;;;4.98;100.00;94024.03;5086017;28;20035;-87
2023/12/20 17:10:22;;;;;;;44.67;19.70;;;;;;;4.52;100.00;94024.97;5080468;28;20039;-87
2023/12/20 17:12:47;;;;;;;46.75;19.20;;;;;;;4.38;100.00;94021.13;5080589;28;20137;-87
2023/12/20 17:15:13;;;;;;;30.95;15.15;;;;;;;4.46;100.00;94025.13;5098146;28;20042;-87
2023/12/20 17:17:38;;;;;;;31.17;14.15;;;;;;;4.50;100.00;94024.38;5096493;28;20028;-87
2023/12/20 17:20:04;;;;;;;35.95;14.68;;;;;;;4.37;100.00;94032.50;5097054;28;20423;-87
2023/12/20 17:22:30;;;;;;;33.28;15.57;;;;;;;4.01;100.00;94024.91;5091537;28;20055;-85
2023/12/20 17:24:55;;;;;;;33.58;16.08;;;;;;;4.27;100.00;94025.34;5076094;28;20029;-84
2023/12/20 17:27:21;;;;;;;49.13;26.42;;;;;;;3.98;100.00;94025.41;5076103;28;20116;-84
2023/12/20 17:29:46;;;;;;;36.28;18.75;;;;;;;3.68;100.00;94034.22;5062887;28;20032;-81
2023/12/20 17:32:12;;;;;;;35.55;16.63;;;;;;;3.64;100.00;94038.28;5095765;28;20067;-84
2023/12/20 17:34:37;;;;;;;28.02;14.07;;;;;;;3.99;100.00;94052.13;5094293;28;20031;-84
2023/12/20 17:37:03;;;;;;;24.35;11.50;;;;;;;4.05;100.00;94046.78;5090786;28;20103;-84
2023/12/20 17:39:29;;;;;;;24.45;10.95;;;;;;;4.14;100.00;94047.19;5076931;28;20040;-81
2023/12/20 17:41:55;;;;;;;20.65;11.20;;;;;;;4.30;100.00;94050.81;5077185;28;20036;-81
2023/12/20 17:44:21;;;;;;;23.58;11.25;;;;;;;4.31;100.00;94055.00;5075961;28;20036;-81
2023/12/20 17:46:47;;;;;;;23.38;11.30;;;;;;;4.12;100.00;94051.81;5075976;28;20059;-82
2023/12/20 17:49:13;;;;;;;23.10;12.40;;;;;;;4.15;100.00;94060.94;5094958;28;20066;-85
2023/12/20 17:51:38;;;;;;;32.30;14.20;;;;;;;4.15;100.00;94053.16;5093099;28;20806;-84
2023/12/20 17:54:04;;;;;;;22.90;13.38;;;;;;;3.88;100.00;94064.13;5092249;28;20035;-84
2023/12/20 17:56:30;;;;;;;24.00;13.00;;;;;;;3.65;100.00;94066.53;5079383;28;20016;-86
2023/12/20 17:58:55;;;;;;;27.58;14.43;;;;;;;3.50;100.00;94068.84;5081473;28;20039;-85
2023/12/20 18:01:21;;;;;;;30.65;13.73;;;;;;;3.77;100.00;94068.31;5059491;28;20031;-85
2023/12/20 18:03:47;;;;;;;24.63;13.00;;;;;;;3.90;100.00;94077.63;5075880;28;20035;-85
2023/12/20 18:06:12;;;;;;;27.52;13.20;;;;;;;4.16;100.00;94073.66;5075541;28;20029;-84
2023/12/20 18:08:38;;;;;;;35.88;15.70;;;;;;;4.22;100.00;94071.94;5088678;28;20081;-84
2023/12/20 18:11:04;;;;;;;28.38;13.52;;;;;;;4.33;100.00;94086.66;5080841;28;20047;-85
2023/12/20 18:13:29;;;;;;;24.35;12.40;;;;;;;4.48;100.00;94087.94;5076037;28;20035;-85
2023/12/20 18:15:55;;;;;;;25.15;12.00;;;;;;;4.55;100.00;94093.75;5075468;28;20426;-85
2023/12/20 18:18:20;;;;;;;23.02;12.43;;;;;;;4.53;100.00;94095.78;5083142;28;20024;-85
2023/12/20 18:20:46;;;;;;;32.30;14.50;;;;;;;4.57;100.00;94102.06;5077990;28;20036;-85
2023/12/20 18:23:11;;;;;;;35.67;16.88;;;;;;;4.49;100.00;94099.88;5075381;28;20028;-85
2023/12/20 18:25:37;;;;;;;26.15;13.68;;;;;;;4.54;100.00;94084.38;5079691;28;20028;-86
2023/12/20 18:28:02;;;;;;;31.30;15.57;;;;;;;4.44;100.00;94081.63;5074852;28;20340;-83
2023/12/20 18:30:28;;;;;;;28.23;15.18;;;;;;;4.39;100.00;94082.34;5096420;28;20081;-83
2023/12/20 18:32:53;;;;;;;30.77;15.20;;;;;;;4.36;100.00;94091.38;5091169;28;20108;-83
2023/12/20 18:35:19;;;;;;;26.23;14.13;;;;;;;4.00;100.00;94100.34;5075632;28;20388;-83
2023/12/20 18:37:44;;;;;;;26.85;14.45;;;;;;;4.23;100.00;94104.63;5088143;28;20077;-83
2023/12/20 18:40:10;;;;;;;27.55;14.38;;;;;;;4.22;100.00;94096.06;5066699;28;20040;-82
2023/12/20 18:42:36;;;;;;;32.92;15.82;;;;;;;4.30;100.00;94099.31;5076654;28;20353;-83
2023/12/20 18:45:03;;;;;;;36.75;16.88;;;;;;;4.34;100.00;94092.63;5091078;28;20036;-83
2023/12/20 18:47:28;;;;;;;30.85;15.80;;;;;;;3.94;100.00;94102.84;5074575;28;20033;-82
2023/12/20 18:49:54;;;;;;;42.15;19.77;;;;;;;4.06;100.00;94102.81;5084322;28;20035;-85
2023/12/20 18:52:19;;;;;;;32.15;17.20;;;;;;;3.81;100.00;94096.13;5075722;28;20024;-85
2023/12/20 18:54:46;;;;;;;34.13;17.88;;;;;;;3.77;100.00;94104.59;5080080;28;20413;-85
2023/12/20 18:57:11;;;;;;;35.35;15.88;;;;;;;3.76;100.00;94103.81;5081542;28;20033;-85
2023/12/20 18:59:36;;;;;;;33.65;16.15;;;;;;;3.86;100.00;94098.03;5093661;28;20081;-85
2023/12/20 19:02:02;;;;;;;29.92;16.38;;;;;;;3.72;100.00;94094.16;5078880;28;20466;-84
2023/12/20 19:04:28;;;;;;;36.13;17.30;;;;;;;3.94;100.00;94094.28;5079086;28;20032;-82
2023/12/20 19:06:57;;;;;;;35.58;18.48;;;;;;;3.95;100.00;94093.25;5078450;28;20016;-85
2023/12/20 19:09:24;;;;;;;31.85;17.25;;;;;;;4.02;100.00;94096.53;5079010;28;20024;-85
2023/12/20 19:11:50;;;;;;;36.47;17.15;;;;;;;3.78;100.00;94099.19;5062665;28;20041;-85
2023/12/20 19:14:16;;;;;;;32.03;15.32;;;;;;;3.74;100.00;94092.09;5085004;28;20032;-85
2023/12/20 19:16:42;;;;;;;33.90;15.35;;;;;;;3.62;100.00;94100.69;5098736;28;20425;-82
2023/12/20 19:19:07;;;;;;;35.88;16.70;;;;;;;3.48;100.00;94101.97;5086645;28;20114;-82
2023/12/20 19:21:33;;;;;;;29.65;15.48;;;;;;;3.58;100.00;94111.75;5089194;28;20032;-82
2023/12/20 19:23:58;;;;;;;25.33;14.57;;;;;;;3.64;100.00;94106.44;5090373;28;20036;-82
2023/12/20 19:26:24;;;;;;;28.65;14.52;;;;;;;3.66;100.00;94111.38;5098957;28;20036;-82
2023/12/20 19:28:49;;;;;;;28.95;15.52;;;;;;;3.63;100.00;94104.84;5095595;28;20059;-82
2023/12/20 19:31:15;;;;;;;29.60;16.00;;;;;;;3.73;100.00;94108.66;5081006;28;20122;-82
2023/12/20 19:33:41;;;;;;;30.92;15.90;;;;;;;3.81;100.00;94103.91;5072786;28;20027;-82
2023/12/20 19:36:08;;;;;;;26.00;14.95;;;;;;;4.04;100.00;94098.84;5098689;28;20044;-82
2023/12/20 19:38:35;;;;;;;32.38;17.73;;;;;;;3.95;100.00;94109.63;5094557;28;20023;-82
2023/12/20 19:41:00;;;;;;;32.28;15.68;;;;;;;3.99;100.00;94112.50;5078395;28;20032;-82
2023/12/20 19:43:26;;;;;;;30.77;17.17;;;;;;;3.70;100.00;94104.72;5090108;28;20082;-82
2023/12/20 19:45:51;;;;;;;34.00;17.33;;;;;;;3.87;100.00;94104.00;5078191;28;20067;-82
2023/12/20 19:48:17;;;;;;;31.55;17.33;;;;;;;3.86;100.00;94107.59;5080041;28;20020;-81
2023/12/20 19:50:42;;;;;;;33.22;17.23;;;;;;;3.91;100.00;94105.13;5094556;28;20073;-84
2023/12/20 19:53:08;;;;;;;31.75;14.68;;;;;;;3.90;100.00;94109.50;5080024;28;20028;-82
2023/12/20 19:55:34;;;;;;;25.05;14.15;;;;;;;3.93;100.00;94111.63;5096688;28;20028;-82
2023/12/20 19:58:00;;;;;;;28.13;14.75;;;;;;;3.89;100.00;94115.72;5098908;28;20098;-81
2023/12/20 20:00:26;;;;;;;29.42;13.80;;;;;;;3.79;100.00;94115.50;5098312;28;20083;-84
2023/12/20 20:02:51;;;;;;;28.65;15.70;;;;;;;3.82;100.00;94115.06;5098186;28;20039;-84
2023/12/20 20:05:17;;;;;;;28.50;14.65;;;;;;;3.95;100.00;94108.81;5099311;28;20028;-84
2023/12/20 20:07:42;;;;;;;28.55;15.65;;;;;;;3.95;100.00;94108.81;5097695;28;20086;-84
2023/12/20 20:10:08;;;;;;;22.55;12.13;;;;;;;4.05;100.00;94110.81;5079788;28;20036;-84
2023/12/20 20:12:34;;;;;;;23.05;11.38;;;;;;;4.17;100.00;94105.59;5084038;28;20032;-84
2023/12/20 20:15:00;;;;;;;24.80;13.05;;;;;;;3.99;100.00;94112.50;5093933;28;20035;-84
2023/12/20 20:17:26;;;;;;;19.60;10.80;;;;;;;4.07;100.00;94113.94;5097441;28;20031;-84
2023/12/20 20:19:51;;;;;;;19.85;9.18;;;;;;;4.18;100.00;94114.94;5097629;28;20055;-84
2023/12/20 20:22:17;;;;;;;13.07;7.03;;;;;;;4.20;100.00;94108.47;5097717;28;20526;-84
2023/12/20 20:24:43;;;;;;;12.50;6.40;;;;;;;4.34;100.00;94108.19;5097551;28;20024;-81
2023/12/20 20:27:09;;;;;;;13.57;6.88;;;;;;;4.39;100.00;94108.28;5094864;28;20035;-81
2023/12/20 20:29:34;;;;;;;22.42;7.20;;;;;;;4.45;100.00;94120.31;5077428;28;20029;-81
2023/12/20 20:32:00;;;;;;;10.65;6.07;;;;;;;4.35;100.00;94123.53;5077376;28;20039;-82
2023/12/20 20:34:27;;;;;;;18.15;7.07;;;;;;;4.27;100.00;94116.13;5079486;28;20029;-81